INFORMACIÓN METAR y TAF
METAR FOR MUCC
ADDS - METARS form results

(2352 UTC 05 June 2023)
Data provider http://aviationweather.gov/metar/data/
 
Forecast for: MUCC (CANAGUA , CU)
Text: MUCC 052300Z 0600/0624 VRB04KT 9000 FEW020
Forecast period: 0000 UTC 06 June 2023 to 0000 UTC 07 June 2023
Forecast type: FROM: standard forecast or significant change
Winds: variable direction winds at 5 MPH (4 knots; 2.1 m/s)
Visibility: 6 miles (9 km)
Ceiling: at least 12,000 feet AGL
Clouds: few clouds at 2000 feet AGL
Weather: no significant weather forecast for this period
Text: TEMPO 0609/0610 23006KT SCT020
Forecast period: 0900 to 1000 UTC 06 June 2023
Forecast type: TEMPORARY: The following changes expected for less than half the time period
Winds: from the SW (230 degrees) at 7 MPH (6 knots; 3.1 m/s)
Visibility: missing
Ceiling: at least 12,000 feet AGL
Clouds: scattered clouds at 2000 feet AGL
Weather: no significant weather forecast for this period

 MAPA DE AEROPUERTO

 INFORMACIÓN DE PISTA
Pista 08 Longitud 9842 ft Ancho 148 ft
Elevación 10 ft Umbral desplazado 0 ft Rumbo de pista 71
Pista 26 Longitud 9842 ft Ancho 148 ft
Elevación 13 ft Umbral desplazado 0 ft Rumbo de pista 251

 FRECUANCIAS DEL AEROPUERTO
Tipo A/G Nombre RDO Frecuencia 340.7 MHZ
Tipo TWR Nombre APP/TWR Frecuencia 118.8 MHZ

 RADIO AYUDAS DEL AEROPUERTO
Tipo NDB Nombre Jardines Del Rey Frecuencia 382 KHZ
Tipo VOR-DME Nombre Jardines Del Rey Frecuencia 117800 KHZ



Powered by Virtual Airlines Manager [v2.6.2]